Time;durP1;ratioP1;P1;durP2;ratioP2;P2;SDS_P1;SDS_P2;PMS_P1;PMS_P2;Temp;Humidity;BMP_temperature;BMP_pressure;BME280_temperature;BME280_humidity;BME280_pressure;Samples;Min_cycle;Max_cycle;Signal;HPM_P1;HPM_P2
2022/08/21 00:01:14;;;;;;;4.97;4.35;;;;;;;;;;5031573;28;20315;-55
2022/08/21 00:03:41;;;;;;;5.00;4.60;;;;;;;;;;5038419;28;20243;-54
2022/08/21 00:06:09;;;;;;;5.25;4.53;;;;;;;;;;5032995;28;20278;-54
2022/08/21 00:08:36;;;;;;;7.18;4.75;;;;;;;;;;5029448;28;20232;-55
2022/08/21 00:11:02;;;;;;;4.85;4.45;;;;;;;;;;5034164;28;20601;-54
2022/08/21 00:13:28;;;;;;;5.35;4.95;;;;;;;;;;5041609;28;20219;-55
2022/08/21 00:15:55;;;;;;;5.65;5.25;;;;;;;;;;5040329;28;20327;-55
2022/08/21 00:18:21;;;;;;;5.55;5.05;;;;;;;;;;5038990;28;20239;-55
2022/08/21 00:20:48;;;;;;;5.10;4.70;;;;;;;;;;5031903;28;20232;-55
2022/08/21 00:23:16;;;;;;;5.03;4.63;;;;;;;;;;5036197;28;20231;-52
2022/08/21 00:25:43;;;;;;;5.93;5.40;;;;;;;;;;5030921;28;20238;-53
2022/08/21 00:28:09;;;;;;;5.15;4.75;;;;;;;;;;5031914;28;20239;-53
2022/08/21 00:30:36;;;;;;;5.90;5.30;;;;;;;;;;5038421;28;20335;-53
2022/08/21 00:33:03;;;;;;;5.82;4.93;;;;;;;;;;5035300;28;20240;-54
2022/08/21 00:35:31;;;;;;;6.07;5.57;;;;;;;;;;5028727;28;20845;-53
2022/08/21 00:37:58;;;;;;;5.75;5.10;;;;;;;;;;5033408;28;20619;-53
2022/08/21 00:40:28;;;;;;;5.55;5.15;;;;;;;;;;5041313;28;20228;-53
2022/08/21 00:42:54;;;;;;;5.18;4.65;;;;;;;;;;5035921;28;20259;-54
2022/08/21 00:45:21;;;;;;;6.25;5.65;;;;;;;;;;5032827;28;20235;-53
2022/08/21 00:47:48;;;;;;;5.80;5.30;;;;;;;;;;5036002;28;20325;-53
2022/08/21 00:50:14;;;;;;;5.97;5.47;;;;;;;;;;5035303;28;20228;-54
2022/08/21 00:52:42;;;;;;;6.68;6.03;;;;;;;;;;5036273;28;20669;-54
2022/08/21 00:55:09;;;;;;;6.25;5.75;;;;;;;;;;5033904;28;20765;-53
2022/08/21 00:57:41;;;;;;;6.47;5.88;;;;;;;;;;5029062;28;20315;-55
2022/08/21 01:00:09;;;;;;;5.90;5.40;;;;;;;;;;5032433;28;20314;-54
2022/08/21 01:02:36;;;;;;;6.47;5.88;;;;;;;;;;5031166;28;20718;-53
2022/08/21 01:05:03;;;;;;;6.78;5.93;;;;;;;;;;5044962;28;20232;-54
2022/08/21 01:07:30;;;;;;;7.28;6.65;;;;;;;;;;5038577;28;20243;-54
2022/08/21 01:09:56;;;;;;;6.38;5.78;;;;;;;;;;5041619;28;20642;-53
2022/08/21 01:12:23;;;;;;;6.65;6.05;;;;;;;;;;5037837;28;20231;-54
2022/08/21 01:14:51;;;;;;;7.03;6.43;;;;;;;;;;5033903;28;20232;-54
2022/08/21 01:17:18;;;;;;;6.28;5.75;;;;;;;;;;5035400;28;20263;-53
2022/08/21 01:19:44;;;;;;;6.97;6.38;;;;;;;;;;5033022;28;20228;-53
2022/08/21 01:22:12;;;;;;;7.45;5.78;;;;;;;;;;5039726;28;20311;-53
2022/08/21 01:24:39;;;;;;;6.43;5.93;;;;;;;;;;5032843;28;20236;-53
2022/08/21 01:27:05;;;;;;;6.18;5.68;;;;;;;;;;5032500;28;20227;-54
2022/08/21 01:29:34;;;;;;;7.13;6.35;;;;;;;;;;5040997;28;20238;-54
2022/08/21 01:32:04;;;;;;;7.15;6.55;;;;;;;;;;5042523;28;20223;-53
2022/08/21 01:34:30;;;;;;;7.00;6.45;;;;;;;;;;5037731;28;20227;-53
2022/08/21 01:36:57;;;;;;;6.68;6.18;;;;;;;;;;5040343;28;20244;-54
2022/08/21 01:39:24;;;;;;;5.88;5.43;;;;;;;;;;5029085;28;20288;-53
2022/08/21 01:41:51;;;;;;;6.55;5.85;;;;;;;;;;5027358;28;20315;-53
2022/08/21 01:44:21;;;;;;;6.72;6.13;;;;;;;;;;5036027;28;20232;-53
2022/08/21 01:46:47;;;;;;;5.55;5.15;;;;;;;;;;5034361;28;20244;-53
2022/08/21 01:49:14;;;;;;;6.82;5.80;;;;;;;;;;5031619;28;20229;-53
2022/08/21 01:51:41;;;;;;;9.60;6.25;;;;;;;;;;5028340;28;20229;-54
2022/08/21 01:54:07;;;;;;;6.70;6.13;;;;;;;;;;5033773;28;20232;-53
2022/08/21 01:56:38;;;;;;;5.55;5.03;;;;;;;;;;5031264;28;20230;-53
2022/08/21 01:59:04;;;;;;;5.70;5.28;;;;;;;;;;5032115;28;20709;-53
2022/08/21 02:01:31;;;;;;;5.43;5.00;;;;;;;;;;5035769;28;20238;-53
2022/08/21 02:03:57;;;;;;;5.00;4.60;;;;;;;;;;5034926;28;20236;-54
2022/08/21 02:06:24;;;;;;;6.10;5.13;;;;;;;;;;5036184;28;20322;-53
2022/08/21 02:08:51;;;;;;;4.82;4.32;;;;;;;;;;5037138;28;20278;-54
2022/08/21 02:11:17;;;;;;;4.57;4.18;;;;;;;;;;5034026;28;20220;-54
2022/08/21 02:13:45;;;;;;;5.32;4.35;;;;;;;;;;5045794;28;20220;-53
2022/08/21 02:16:11;;;;;;;4.80;4.38;;;;;;;;;;5037054;28;20235;-53
2022/08/21 02:18:38;;;;;;;4.55;4.15;;;;;;;;;;5039734;28;20315;-53
2022/08/21 02:21:05;;;;;;;4.95;3.95;;;;;;;;;;5035268;28;20281;-56
2022/08/21 02:23:32;;;;;;;5.05;4.50;;;;;;;;;;5038402;28;20235;-54
2022/08/21 02:25:59;;;;;;;5.18;4.38;;;;;;;;;;5043741;28;20237;-53
2022/08/21 02:28:26;;;;;;;5.82;4.00;;;;;;;;;;5040185;28;20243;-53
2022/08/21 02:30:53;;;;;;;4.90;4.40;;;;;;;;;;5039792;28;20230;-54
2022/08/21 02:33:20;;;;;;;5.25;4.35;;;;;;;;;;5039932;28;20580;-53
2022/08/21 02:35:47;;;;;;;4.32;3.92;;;;;;;;;;5035505;28;20239;-53
2022/08/21 02:38:16;;;;;;;4.32;3.92;;;;;;;;;;5039667;28;20248;-53
2022/08/21 02:40:45;;;;;;;4.78;4.32;;;;;;;;;;5042000;28;21745;-53
2022/08/21 02:43:11;;;;;;;6.07;4.35;;;;;;;;;;5038765;28;20784;-53
2022/08/21 02:45:39;;;;;;;4.78;3.92;;;;;;;;;;5037428;28;20720;-53
2022/08/21 02:48:08;;;;;;;5.22;4.35;;;;;;;;;;5036174;28;20456;-54
2022/08/21 02:50:36;;;;;;;3.90;3.53;;;;;;;;;;5036926;28;20257;-54
2022/08/21 02:53:03;;;;;;;3.95;3.65;;;;;;;;;;5032618;28;20266;-53
2022/08/21 02:55:31;;;;;;;3.88;3.58;;;;;;;;;;5044105;28;20232;-53
2022/08/21 02:57:58;;;;;;;4.57;4.18;;;;;;;;;;5038814;28;20241;-52
2022/08/21 03:00:26;;;;;;;5.70;3.70;;;;;;;;;;5037145;28;20317;-55
2022/08/21 03:02:53;;;;;;;5.07;4.07;;;;;;;;;;5037127;28;20236;-53
2022/08/21 03:05:21;;;;;;;3.83;3.53;;;;;;;;;;5041257;28;20667;-56
2022/08/21 03:07:49;;;;;;;5.47;4.03;;;;;;;;;;5039139;28;20243;-53
2022/08/21 03:10:16;;;;;;;4.38;3.97;;;;;;;;;;5041943;28;20826;-54
2022/08/21 03:12:42;;;;;;;6.38;3.75;;;;;;;;;;5039753;28;20235;-54
2022/08/21 03:15:10;;;;;;;3.80;3.50;;;;;;;;;;5038976;28;20242;-53
2022/08/21 03:17:37;;;;;;;5.07;3.33;;;;;;;;;;5039676;28;20603;-54
2022/08/21 03:20:04;;;;;;;3.42;3.13;;;;;;;;;;5042292;28;20240;-54
2022/08/21 03:22:31;;;;;;;3.80;3.17;;;;;;;;;;5043111;28;20243;-54
2022/08/21 03:24:59;;;;;;;3.25;3.05;;;;;;;;;;5041569;28;20231;-55
2022/08/21 03:27:26;;;;;;;5.47;3.42;;;;;;;;;;5047524;28;20823;-55
2022/08/21 03:29:52;;;;;;;3.28;2.80;;;;;;;;;;5041405;28;20232;-55
2022/08/21 03:32:19;;;;;;;8.68;3.60;;;;;;;;;;5042449;28;20235;-54
2022/08/21 03:34:45;;;;;;;4.80;2.90;;;;;;;;;;5042668;28;20231;-55
2022/08/21 03:37:12;;;;;;;3.42;3.13;;;;;;;;;;5039910;28;20250;-56
2022/08/21 03:39:41;;;;;;;3.83;3.40;;;;;;;;;;5041868;28;20234;-53
2022/08/21 03:42:07;;;;;;;4.03;2.92;;;;;;;;;;5039239;28;20717;-56
2022/08/21 03:44:34;;;;;;;5.18;2.90;;;;;;;;;;5041604;28;20240;-53
2022/08/21 03:47:00;;;;;;;3.05;2.83;;;;;;;;;;5033282;28;20239;-56
2022/08/21 03:49:27;;;;;;;5.45;3.10;;;;;;;;;;5036931;28;20246;-55
2022/08/21 03:51:54;;;;;;;8.07;3.00;;;;;;;;;;5041867;28;20230;-53
2022/08/21 03:54:20;;;;;;;3.17;2.75;;;;;;;;;;5041303;28;20243;-55
2022/08/21 03:56:48;;;;;;;3.20;3.00;;;;;;;;;;5036819;28;20233;-54
2022/08/21 03:59:14;;;;;;;5.38;3.20;;;;;;;;;;5040764;28;20239;-55
2022/08/21 04:01:51;;;;;;;3.10;2.80;;;;;;;;;;5037861;28;20233;-54
2022/08/21 04:04:17;;;;;;;3.78;3.10;;;;;;;;;;5036923;28;20243;-54
2022/08/21 04:06:44;;;;;;;3.47;3.13;;;;;;;;;;5042334;28;20232;-55
2022/08/21 04:09:10;;;;;;;4.47;2.72;;;;;;;;;;5035676;28;20337;-55
2022/08/21 04:11:36;;;;;;;4.38;2.70;;;;;;;;;;5041314;28;20231;-56
2022/08/21 04:14:04;;;;;;;2.63;2.42;;;;;;;;;;5037210;28;20231;-56
2022/08/21 04:16:30;;;;;;;3.20;2.88;;;;;;;;;;5045035;28;20233;-55
2022/08/21 04:18:57;;;;;;;6.28;2.95;;;;;;;;;;5037022;28;20239;-55
2022/08/21 04:21:23;;;;;;;3.40;2.92;;;;;;;;;;5048615;28;20243;-55
2022/08/21 04:23:50;;;;;;;3.85;3.00;;;;;;;;;;5037792;28;20242;-55
2022/08/21 04:26:16;;;;;;;4.07;3.00;;;;;;;;;;5034399;28;20910;-56
2022/08/21 04:28:43;;;;;;;2.85;2.50;;;;;;;;;;5043056;28;20624;-55
2022/08/21 04:31:11;;;;;;;3.90;2.95;;;;;;;;;;5041190;28;20290;-55
2022/08/21 04:33:37;;;;;;;6.43;3.10;;;;;;;;;;5039850;28;20232;-55
2022/08/21 04:36:04;;;;;;;3.45;2.55;;;;;;;;;;5041915;28;20246;-55
2022/08/21 04:38:31;;;;;;;4.82;3.10;;;;;;;;;;5036652;28;20232;-54
2022/08/21 04:40:58;;;;;;;4.53;2.50;;;;;;;;;;5042261;28;20242;-55
2022/08/21 04:43:24;;;;;;;2.78;2.53;;;;;;;;;;5034721;28;20232;-53
2022/08/21 04:45:52;;;;;;;3.03;2.83;;;;;;;;;;5033387;28;20240;-53
2022/08/21 04:48:21;;;;;;;2.92;2.63;;;;;;;;;;5043011;28;20733;-53
2022/08/21 04:50:51;;;;;;;3.33;2.38;;;;;;;;;;5033355;28;20231;-55
2022/08/21 04:53:20;;;;;;;9.50;3.15;;;;;;;;;;5034598;28;20236;-53
2022/08/21 04:55:47;;;;;;;3.88;2.83;;;;;;;;;;5044142;28;20233;-55
2022/08/21 04:58:15;;;;;;;4.13;2.65;;;;;;;;;;5034034;28;20236;-55
2022/08/21 05:00:42;;;;;;;2.78;2.58;;;;;;;;;;5034390;28;20236;-55
2022/08/21 05:03:09;;;;;;;3.25;2.65;;;;;;;;;;5036377;28;20220;-53
2022/08/21 05:05:37;;;;;;;5.13;2.63;;;;;;;;;;5048135;28;20240;-55
2022/08/21 05:08:04;;;;;;;9.65;3.25;;;;;;;;;;5039310;28;20401;-55
2022/08/21 05:10:32;;;;;;;5.82;2.92;;;;;;;;;;5037781;28;20683;-55
2022/08/21 05:12:58;;;;;;;7.55;3.03;;;;;;;;;;5038559;28;20239;-56
2022/08/21 05:15:24;;;;;;;7.18;2.97;;;;;;;;;;5041287;28;20234;-56
2022/08/21 05:17:51;;;;;;;5.93;2.67;;;;;;;;;;5039646;28;20232;-55
2022/08/21 05:20:18;;;;;;;2.75;2.20;;;;;;;;;;5037033;28;20240;-55
2022/08/21 05:22:46;;;;;;;4.00;2.53;;;;;;;;;;5040116;28;20227;-55
2022/08/21 05:25:12;;;;;;;6.15;2.53;;;;;;;;;;5037581;28;20263;-55
2022/08/21 05:27:39;;;;;;;4.03;2.65;;;;;;;;;;5040777;28;21872;-55
2022/08/21 05:30:07;;;;;;;4.60;2.40;;;;;;;;;;5033197;28;20224;-55
2022/08/21 05:32:33;;;;;;;2.65;2.33;;;;;;;;;;5040276;28;20239;-55
2022/08/21 05:34:59;;;;;;;4.03;2.53;;;;;;;;;;5035557;28;20343;-52
2022/08/21 05:37:26;;;;;;;2.60;2.33;;;;;;;;;;5034680;28;20232;-55
2022/08/21 05:39:53;;;;;;;3.75;2.60;;;;;;;;;;5031058;28;20233;-55
2022/08/21 05:42:20;;;;;;;3.05;2.53;;;;;;;;;;5039135;28;20232;-55
2022/08/21 05:44:46;;;;;;;3.03;2.72;;;;;;;;;;5044291;28;20224;-55
2022/08/21 05:47:12;;;;;;;5.82;2.20;;;;;;;;;;5034136;28;20246;-55
2022/08/21 05:49:39;;;;;;;3.38;2.85;;;;;;;;;;5038848;28;20713;-55
2022/08/21 05:52:05;;;;;;;2.50;2.30;;;;;;;;;;5036016;28;20401;-55
2022/08/21 05:54:32;;;;;;;3.70;2.42;;;;;;;;;;5038525;28;20701;-55
2022/08/21 05:57:00;;;;;;;4.72;2.22;;;;;;;;;;5040228;28;20231;-54
2022/08/21 05:59:27;;;;;;;8.32;2.65;;;;;;;;;;5035645;28;20231;-55
2022/08/21 06:01:53;;;;;;;2.80;2.50;;;;;;;;;;5038354;28;20220;-55
2022/08/21 06:04:20;;;;;;;3.42;2.30;;;;;;;;;;5038230;28;20248;-55
2022/08/21 06:06:47;;;;;;;4.13;2.88;;;;;;;;;;5036334;28;20557;-55
2022/08/21 06:09:13;;;;;;;2.65;2.03;;;;;;;;;;5039479;28;20242;-55
2022/08/21 06:11:40;;;;;;;2.95;2.40;;;;;;;;;;5041544;28;20611;-55
2022/08/21 06:14:07;;;;;;;5.10;3.55;;;;;;;;;;5040420;28;20235;-55
2022/08/21 06:16:34;;;;;;;4.90;2.67;;;;;;;;;;5039488;28;20235;-55
2022/08/21 06:19:00;;;;;;;6.70;2.92;;;;;;;;;;5048708;28;20243;-55
2022/08/21 06:21:26;;;;;;;5.38;3.03;;;;;;;;;;5042324;28;20267;-55
2022/08/21 06:23:53;;;;;;;6.55;2.72;;;;;;;;;;5046167;28;20228;-54
2022/08/21 06:26:19;;;;;;;6.75;2.85;;;;;;;;;;5031245;28;20228;-54
2022/08/21 06:28:46;;;;;;;4.90;2.40;;;;;;;;;;5038190;28;20239;-53
2022/08/21 06:31:15;;;;;;;2.65;2.45;;;;;;;;;;5043075;28;20246;-54
2022/08/21 06:33:42;;;;;;;2.72;2.08;;;;;;;;;;5038664;28;20255;-54
2022/08/21 06:36:09;;;;;;;3.03;2.72;;;;;;;;;;5039039;28;20240;-53
2022/08/21 06:38:35;;;;;;;4.05;2.65;;;;;;;;;;5040739;28;20250;-53
2022/08/21 06:41:01;;;;;;;4.40;2.63;;;;;;;;;;5032096;28;20813;-54
2022/08/21 06:43:28;;;;;;;4.50;2.42;;;;;;;;;;5029369;28;20236;-54
2022/08/21 06:45:54;;;;;;;5.90;2.97;;;;;;;;;;5040207;28;20232;-53
2022/08/21 06:48:22;;;;;;;3.00;2.35;;;;;;;;;;5040888;28;20234;-53
2022/08/21 06:50:49;;;;;;;4.70;2.78;;;;;;;;;;5034103;28;20253;-54
2022/08/21 06:53:16;;;;;;;6.00;2.58;;;;;;;;;;5039023;28;20232;-53
2022/08/21 06:55:42;;;;;;;3.80;2.70;;;;;;;;;;5036009;28;20239;-53
2022/08/21 06:58:09;;;;;;;8.13;2.95;;;;;;;;;;5041998;28;20231;-54
2022/08/21 07:00:38;;;;;;;4.53;2.65;;;;;;;;;;5034827;28;20236;-61
2022/08/21 07:03:05;;;;;;;5.80;2.90;;;;;;;;;;5037457;28;20318;-54
2022/08/21 07:05:32;;;;;;;5.30;3.08;;;;;;;;;;5039455;28;20698;-54
2022/08/21 07:07:59;;;;;;;3.83;2.42;;;;;;;;;;5038383;28;20246;-54
2022/08/21 07:10:26;;;;;;;3.50;2.40;;;;;;;;;;5033702;28;20234;-54
2022/08/21 07:12:53;;;;;;;6.55;2.05;;;;;;;;;;5039618;28;20236;-54
2022/08/21 07:15:20;;;;;;;4.05;2.47;;;;;;;;;;5039955;28;20250;-54
2022/08/21 07:17:46;;;;;;;4.63;2.33;;;;;;;;;;5037832;28;20753;-54
2022/08/21 07:20:12;;;;;;;2.83;1.90;;;;;;;;;;5053274;28;20251;-54
2022/08/21 07:22:40;;;;;;;6.53;2.55;;;;;;;;;;5049999;28;20307;-54
2022/08/21 07:25:07;;;;;;;5.35;2.50;;;;;;;;;;5041320;28;20239;-55
2022/08/21 07:27:34;;;;;;;7.00;2.78;;;;;;;;;;5038798;28;20239;-54
2022/08/21 07:30:00;;;;;;;4.22;2.72;;;;;;;;;;5037781;28;20232;-54
2022/08/21 07:32:26;;;;;;;5.65;2.75;;;;;;;;;;5040725;28;20326;-54
2022/08/21 07:34:53;;;;;;;3.60;2.47;;;;;;;;;;5039993;28;20231;-54
2022/08/21 07:37:20;;;;;;;5.47;2.33;;;;;;;;;;5038486;28;20232;-53
2022/08/21 07:39:48;;;;;;;2.58;2.10;;;;;;;;;;5042696;28;20255;-56
2022/08/21 07:42:15;;;;;;;3.13;1.88;;;;;;;;;;5041291;28;20260;-53
2022/08/21 07:44:41;;;;;;;6.57;2.28;;;;;;;;;;5035435;28;20228;-55
2022/08/21 07:47:07;;;;;;;4.47;2.63;;;;;;;;;;5033521;28;20260;-54
2022/08/21 07:49:34;;;;;;;3.80;2.30;;;;;;;;;;5040406;28;20231;-54
2022/08/21 07:52:00;;;;;;;4.72;2.38;;;;;;;;;;5033651;28;20228;-54
2022/08/21 07:54:27;;;;;;;6.60;2.50;;;;;;;;;;5044815;28;20239;-54
2022/08/21 07:56:54;;;;;;;4.68;2.17;;;;;;;;;;5038652;28;20236;-54
2022/08/21 07:59:21;;;;;;;6.32;2.78;;;;;;;;;;5040549;28;20238;-54
2022/08/21 08:01:47;;;;;;;5.20;2.58;;;;;;;;;;5046490;28;21050;-54
2022/08/21 08:04:15;;;;;;;5.80;3.03;;;;;;;;;;5046667;28;20228;-54
2022/08/21 08:06:41;;;;;;;5.10;2.58;;;;;;;;;;5041133;28;20263;-55
2022/08/21 08:09:08;;;;;;;6.85;2.60;;;;;;;;;;5040524;28;20243;-54
2022/08/21 08:11:34;;;;;;;4.50;2.30;;;;;;;;;;5040533;28;20232;-55
2022/08/21 08:14:03;;;;;;;3.85;2.08;;;;;;;;;;5045258;28;20238;-54
2022/08/21 08:16:30;;;;;;;3.65;2.22;;;;;;;;;;5037975;28;20240;-55
2022/08/21 08:18:56;;;;;;;7.75;2.67;;;;;;;;;;5038264;28;20247;-59
2022/08/21 08:21:22;;;;;;;4.60;1.95;;;;;;;;;;5042836;28;20296;-55
2022/08/21 08:23:49;;;;;;;3.58;1.92;;;;;;;;;;5048819;28;20230;-55
2022/08/21 08:26:16;;;;;;;3.55;1.80;;;;;;;;;;5036199;28;20273;-55
2022/08/21 08:28:42;;;;;;;4.53;1.73;;;;;;;;;;5043647;28;20240;-55
2022/08/21 08:31:10;;;;;;;2.97;1.30;;;;;;;;;;5034764;28;20322;-56
2022/08/21 08:33:36;;;;;;;4.00;2.22;;;;;;;;;;5039633;28;20238;-56
2022/08/21 08:36:03;;;;;;;5.80;2.45;;;;;;;;;;5039352;28;20236;-55
2022/08/21 08:38:29;;;;;;;4.78;1.67;;;;;;;;;;5036219;28;20625;-55
2022/08/21 08:40:59;;;;;;;4.03;2.15;;;;;;;;;;5041711;28;20238;-54
2022/08/21 08:43:26;;;;;;;5.90;1.95;;;;;;;;;;5036982;28;20229;-56
2022/08/21 08:45:54;;;;;;;7.45;2.10;;;;;;;;;;5037538;28;20231;-56
2022/08/21 08:48:33;;;;;;;7.00;2.20;;;;;;;;;;5041069;28;20239;-55
2022/08/21 08:51:01;;;;;;;5.22;2.17;;;;;;;;;;5039413;28;20236;-53
2022/08/21 08:53:30;;;;;;;3.15;1.63;;;;;;;;;;5036395;28;20579;-53
2022/08/21 08:55:58;;;;;;;7.95;2.10;;;;;;;;;;5037081;28;20236;-55
2022/08/21 08:58:27;;;;;;;2.78;1.67;;;;;;;;;;5041034;28;20886;-55
2022/08/21 09:00:54;;;;;;;3.55;1.90;;;;;;;;;;5032462;28;20235;-55
2022/08/21 09:03:21;;;;;;;2.10;1.60;;;;;;;;;;5028491;28;20315;-55
2022/08/21 09:05:56;;;;;;;2.67;1.48;;;;;;;;;;5048962;28;20587;-55
2022/08/21 09:08:30;;;;;;;1.90;1.40;;;;;;;;;;5042776;28;20704;-55
2022/08/21 09:11:01;;;;;;;2.92;1.80;;;;;;;;;;5040344;28;20640;-54
2022/08/21 09:13:32;;;;;;;3.30;1.58;;;;;;;;;;5038099;28;20239;-55
2022/08/21 09:16:05;;;;;;;4.10;2.42;;;;;;;;;;5034144;28;20238;-55
2022/08/21 09:18:36;;;;;;;2.33;1.83;;;;;;;;;;5035662;28;20699;-55
2022/08/21 09:21:12;;;;;;;2.08;1.33;;;;;;;;;;5038724;28;20246;-56
2022/08/21 09:23:43;;;;;;;3.08;1.58;;;;;;;;;;5035385;28;20232;-55
2022/08/21 09:26:12;;;;;;;5.32;1.70;;;;;;;;;;5034109;28;20235;-53
2022/08/21 09:28:40;;;;;;;3.60;1.30;;;;;;;;;;5041596;28;20262;-54
2022/08/21 09:31:08;;;;;;;4.82;1.85;;;;;;;;;;5040326;28;20233;-57
2022/08/21 09:33:34;;;;;;;3.00;1.33;;;;;;;;;;5039910;28;20318;-53
2022/08/21 09:36:00;;;;;;;3.10;1.20;;;;;;;;;;5034520;28;20231;-55
2022/08/21 09:38:31;;;;;;;1.88;1.65;;;;;;;;;;5043992;28;21848;-55
2022/08/21 09:40:59;;;;;;;4.05;1.33;;;;;;;;;;5040057;28;20269;-55
2022/08/21 09:43:26;;;;;;;3.88;2.20;;;;;;;;;;5040988;28;20240;-55
2022/08/21 09:46:02;;;;;;;4.10;1.88;;;;;;;;;;5034058;28;20224;-54
2022/08/21 09:48:30;;;;;;;3.00;1.92;;;;;;;;;;5038288;28;20238;-54
2022/08/21 09:51:06;;;;;;;3.90;1.92;;;;;;;;;;5033748;28;20281;-55
2022/08/21 09:53:34;;;;;;;1.35;1.25;;;;;;;;;;5034178;28;20331;-55
2022/08/21 09:58:48;;;;;;;4.95;2.35;;;;;;;;;;5034124;28;20313;-54
2022/08/21 10:01:15;;;;;;;3.38;1.80;;;;;;;;;;5030552;28;20730;-52
2022/08/21 10:03:42;;;;;;;2.80;2.03;;;;;;;;;;5044032;28;20227;-52
2022/08/21 10:06:10;;;;;;;2.97;1.63;;;;;;;;;;5037278;28;20240;-52
2022/08/21 10:08:39;;;;;;;2.60;2.00;;;;;;;;;;5045129;28;20836;-52
2022/08/21 10:11:06;;;;;;;4.55;2.22;;;;;;;;;;5041852;28;20231;-52
2022/08/21 10:13:41;;;;;;;4.55;2.63;;;;;;;;;;5037828;28;20290;-51
2022/08/21 10:16:15;;;;;;;3.35;2.13;;;;;;;;;;5034645;28;20224;-51
2022/08/21 10:18:42;;;;;;;5.32;2.45;;;;;;;;;;5037871;28;20234;-51
2022/08/21 10:21:13;;;;;;;3.60;2.25;;;;;;;;;;5038765;28;20254;-52
2022/08/21 10:23:47;;;;;;;3.60;2.15;;;;;;;;;;5037192;28;20227;-52
2022/08/21 10:26:21;;;;;;;9.70;1.88;;;;;;;;;;5028886;28;20227;-52
2022/08/21 10:28:52;;;;;;;5.18;2.38;;;;;;;;;;5029691;28;20712;-52
2022/08/21 10:31:23;;;;;;;4.70;2.00;;;;;;;;;;5031853;28;20230;-52
2022/08/21 10:33:54;;;;;;;2.00;1.58;;;;;;;;;;5039455;28;20238;-55
2022/08/21 10:36:26;;;;;;;2.97;1.58;;;;;;;;;;5031677;28;20235;-55
2022/08/21 10:38:59;;;;;;;2.95;1.30;;;;;;;;;;5038655;28;20492;-56
2022/08/21 10:41:31;;;;;;;3.80;1.35;;;;;;;;;;5046372;28;20235;-56
2022/08/21 10:44:04;;;;;;;1.90;1.27;;;;;;;;;;5029116;28;20231;-57
2022/08/21 10:46:40;;;;;;;1.30;1.17;;;;;;;;;;5037351;28;20315;-57
2022/08/21 10:49:14;;;;;;;2.83;1.13;;;;;;;;;;5043011;28;20228;-57
2022/08/21 10:51:41;;;;;;;1.20;1.10;;;;;;;;;;5040638;28;20702;-57
2022/08/21 10:54:14;;;;;;;2.00;1.27;;;;;;;;;;5045610;28;20247;-56
2022/08/21 10:56:42;;;;;;;2.20;1.10;;;;;;;;;;5039452;28;20327;-61
2022/08/21 10:59:21;;;;;;;1.25;1.10;;;;;;;;;;5043658;28;20634;-57
2022/08/21 11:01:49;;;;;;;1.85;1.05;;;;;;;;;;5040485;28;20232;-57
2022/08/21 11:04:19;;;;;;;0.80;0.80;;;;;;;;;;5034975;28;20240;-57
2022/08/21 11:06:47;;;;;;;2.55;1.98;;;;;;;;;;5026962;28;20714;-56
2022/08/21 11:09:17;;;;;;;1.70;1.45;;;;;;;;;;5027330;28;20230;-57
2022/08/21 11:11:47;;;;;;;2.70;1.08;;;;;;;;;;5034800;28;20232;-57
2022/08/21 11:14:17;;;;;;;1.75;1.48;;;;;;;;;;5034823;28;20761;-57
2022/08/21 11:16:46;;;;;;;2.60;1.25;;;;;;;;;;5040235;28;20234;-56
2022/08/21 11:19:16;;;;;;;4.40;1.95;;;;;;;;;;5039209;28;20259;-57
2022/08/21 11:21:44;;;;;;;1.98;1.42;;;;;;;;;;5033981;28;20230;-57
2022/08/21 11:24:27;;;;;;;2.15;1.35;;;;;;;;;;5043759;28;20375;-56
2022/08/21 11:26:58;;;;;;;1.20;0.90;;;;;;;;;;5028962;28;20343;-57
2022/08/21 11:29:27;;;;;;;1.75;1.20;;;;;;;;;;5038136;28;20308;-56
2022/08/21 11:31:59;;;;;;;1.75;1.08;;;;;;;;;;5030388;28;20228;-57
2022/08/21 11:34:32;;;;;;;3.20;1.20;;;;;;;;;;5033751;28;20248;-57
2022/08/21 11:37:04;;;;;;;2.67;1.27;;;;;;;;;;5035142;28;20240;-57
2022/08/21 11:39:37;;;;;;;1.40;1.00;;;;;;;;;;5041246;28;20240;-57
2022/08/21 11:42:10;;;;;;;1.98;1.00;;;;;;;;;;5029948;28;20310;-57
2022/08/21 11:44:42;;;;;;;3.90;1.08;;;;;;;;;;5035274;28;20658;-57
2022/08/21 11:47:12;;;;;;;1.23;0.80;;;;;;;;;;5033631;28;20231;-57
2022/08/21 11:49:50;;;;;;;2.45;1.02;;;;;;;;;;5035710;28;20228;-57
2022/08/21 11:52:21;;;;;;;2.08;0.82;;;;;;;;;;5034291;28;20232;-57
2022/08/21 11:54:53;;;;;;;1.48;0.77;;;;;;;;;;5033350;28;20236;-57
2022/08/21 11:57:21;;;;;;;1.08;0.80;;;;;;;;;;5040186;28;20342;-57
2022/08/21 11:59:50;;;;;;;2.15;1.13;;;;;;;;;;5037124;28;20236;-56
2022/08/21 12:02:19;;;;;;;2.88;1.25;;;;;;;;;;5030380;28;20232;-57
2022/08/21 12:04:47;;;;;;;1.77;1.40;;;;;;;;;;5033485;28;20240;-57
2022/08/21 12:07:15;;;;;;;3.00;1.58;;;;;;;;;;5031592;28;20247;-57
2022/08/21 12:09:52;;;;;;;3.83;1.45;;;;;;;;;;5036675;28;20227;-57
2022/08/21 12:12:26;;;;;;;2.13;1.15;;;;;;;;;;5036108;28;20816;-56
2022/08/21 12:15:04;;;;;;;3.03;1.40;;;;;;;;;;5035553;28;20234;-57
2022/08/21 12:17:36;;;;;;;4.88;1.50;;;;;;;;;;5037228;28;20908;-56
2022/08/21 12:20:15;;;;;;;2.00;1.60;;;;;;;;;;5036812;28;20273;-57
2022/08/21 12:22:42;;;;;;;3.00;1.17;;;;;;;;;;5034583;28;20716;-56
2022/08/21 12:25:09;;;;;;;3.72;1.35;;;;;;;;;;5040036;28;20239;-57
2022/08/21 12:27:49;;;;;;;3.38;1.45;;;;;;;;;;5032439;28;20714;-57
2022/08/21 12:30:21;;;;;;;2.67;1.33;;;;;;;;;;5035020;28;20226;-56
2022/08/21 12:32:56;;;;;;;4.03;1.45;;;;;;;;;;5034490;28;20693;-57
2022/08/21 12:35:25;;;;;;;2.63;1.33;;;;;;;;;;5032284;28;20969;-57
2022/08/21 12:37:56;;;;;;;3.05;1.45;;;;;;;;;;5037995;28;20235;-56
2022/08/21 12:40:26;;;;;;;4.93;1.45;;;;;;;;;;5038436;28;20228;-56
2022/08/21 12:42:55;;;;;;;3.60;1.08;;;;;;;;;;5040949;28;20251;-56
2022/08/21 12:45:24;;;;;;;5.50;1.50;;;;;;;;;;5035587;28;20316;-56
2022/08/21 12:47:55;;;;;;;1.23;1.13;;;;;;;;;;5036815;28;20239;-55
2022/08/21 12:50:25;;;;;;;3.45;1.58;;;;;;;;;;5036285;28;20223;-57
2022/08/21 12:52:54;;;;;;;2.45;1.40;;;;;;;;;;5034769;28;20228;-57
2022/08/21 12:55:26;;;;;;;1.92;1.65;;;;;;;;;;5030914;28;20243;-57
2022/08/21 12:57:54;;;;;;;3.38;1.30;;;;;;;;;;5032562;28;20614;-57
2022/08/21 13:00:22;;;;;;;4.82;1.60;;;;;;;;;;5028693;28;20231;-57
2022/08/21 13:02:49;;;;;;;4.88;1.92;;;;;;;;;;5028753;28;20243;-57
2022/08/21 13:05:20;;;;;;;1.40;1.20;;;;;;;;;;5039188;28;20234;-57
2022/08/21 13:07:48;;;;;;;2.13;1.50;;;;;;;;;;5034058;28;20239;-58
2022/08/21 13:10:17;;;;;;;2.15;1.30;;;;;;;;;;5037350;28;20231;-56
2022/08/21 13:12:44;;;;;;;3.75;1.90;;;;;;;;;;5036957;28;20236;-56
2022/08/21 13:15:12;;;;;;;3.58;1.65;;;;;;;;;;5033931;28;20268;-57
2022/08/21 13:17:40;;;;;;;2.22;1.27;;;;;;;;;;5035556;28;20247;-57
2022/08/21 13:20:08;;;;;;;3.13;1.65;;;;;;;;;;5037620;28;20239;-56
2022/08/21 13:22:40;;;;;;;2.40;1.85;;;;;;;;;;5032949;28;20283;-56
2022/08/21 13:25:10;;;;;;;3.25;1.60;;;;;;;;;;5032871;28;21251;-56
2022/08/21 13:27:36;;;;;;;6.72;2.00;;;;;;;;;;5030797;28;20235;-57
2022/08/21 13:30:11;;;;;;;4.22;2.50;;;;;;;;;;5036234;28;20737;-57
2022/08/21 13:32:40;;;;;;;2.83;1.65;;;;;;;;;;5038991;28;20226;-56
2022/08/21 13:35:15;;;;;;;8.10;2.50;;;;;;;;;;5033860;28;20231;-56
2022/08/21 13:37:41;;;;;;;3.55;2.35;;;;;;;;;;5034837;28;20232;-56
2022/08/21 13:40:10;;;;;;;3.63;2.83;;;;;;;;;;5039179;28;20239;-57
2022/08/21 13:42:38;;;;;;;3.42;2.65;;;;;;;;;;5041635;28;20237;-57
2022/08/21 13:45:12;;;;;;;2.35;1.75;;;;;;;;;;5037728;28;20242;-57
2022/08/21 13:47:39;;;;;;;3.95;2.20;;;;;;;;;;5030206;28;20232;-57
2022/08/21 13:50:07;;;;;;;3.60;1.88;;;;;;;;;;5033145;28;20232;-57
2022/08/21 13:52:33;;;;;;;4.93;2.00;;;;;;;;;;5036634;28;20255;-58
2022/08/21 13:55:01;;;;;;;2.65;2.10;;;;;;;;;;5035160;28;20240;-57
2022/08/21 13:57:29;;;;;;;7.20;2.10;;;;;;;;;;5033999;28;20278;-57
2022/08/21 14:00:10;;;;;;;2.97;2.15;;;;;;;;;;5034212;28;20235;-57
2022/08/21 14:02:40;;;;;;;3.83;2.30;;;;;;;;;;5037100;28;20318;-57
2022/08/21 14:05:07;;;;;;;2.25;1.80;;;;;;;;;;5038266;28;20235;-60
2022/08/21 14:07:35;;;;;;;5.40;2.85;;;;;;;;;;5032143;28;20255;-59
2022/08/21 14:10:02;;;;;;;3.92;1.98;;;;;;;;;;5030618;28;20239;-57
2022/08/21 14:12:30;;;;;;;1.85;1.73;;;;;;;;;;5027853;28;20770;-57
2022/08/21 14:14:57;;;;;;;2.42;1.90;;;;;;;;;;5032293;28;20259;-58
2022/08/21 14:17:27;;;;;;;2.85;1.60;;;;;;;;;;5032535;28;20233;-56
2022/08/21 14:19:55;;;;;;;5.72;3.00;;;;;;;;;;5028158;28;20516;-57
2022/08/21 14:22:29;;;;;;;4.88;3.03;;;;;;;;;;5034199;28;20239;-57
2022/08/21 14:25:00;;;;;;;3.78;3.08;;;;;;;;;;5042460;28;20909;-59
2022/08/21 14:27:26;;;;;;;4.22;2.60;;;;;;;;;;5036814;28;20334;-58
2022/08/21 14:29:58;;;;;;;6.88;2.85;;;;;;;;;;5039471;28;20316;-58
2022/08/21 14:32:26;;;;;;;5.13;2.38;;;;;;;;;;5033986;28;20240;-57
2022/08/21 14:34:52;;;;;;;2.90;1.85;;;;;;;;;;5034609;28;20263;-58
2022/08/21 14:37:20;;;;;;;3.90;2.08;;;;;;;;;;5028814;28;20712;-56
2022/08/21 14:39:47;;;;;;;3.58;1.90;;;;;;;;;;5041115;28;20240;-51
2022/08/21 14:42:13;;;;;;;3.67;1.98;;;;;;;;;;5036213;28;20236;-51
2022/08/21 14:44:40;;;;;;;4.10;2.03;;;;;;;;;;5038932;28;20236;-52
2022/08/21 14:47:07;;;;;;;6.40;2.50;;;;;;;;;;5036470;28;20363;-51
2022/08/21 14:49:33;;;;;;;3.40;2.67;;;;;;;;;;5041103;28;20321;-51
2022/08/21 14:52:00;;;;;;;3.20;1.88;;;;;;;;;;5030543;28;20224;-54